sensor_id;sensor_type;location;lat;lon;timestamp;pressure;altitude;pressure_sealevel;temperature;humidity
39295;BME280;52361;52.100;5.248;2023-02-13T00:01:55;103714.00000000001;;;9.59;96.65
39295;BME280;52361;52.100;5.248;2023-02-13T00:03:32;103717.0;;;9.66;96.66
39295;BME280;52361;52.100;5.248;2023-02-13T00:05:09;103714.00000000001;;;9.53;96.83
39295;BME280;52361;52.100;5.248;2023-02-13T00:08:23;103711.99999999999;;;9.53;97.03
39295;BME280;52361;52.100;5.248;2023-02-13T00:10:00;103708.99999999999;;;9.6;97.15
39295;BME280;52361;52.100;5.248;2023-02-13T00:11:37;103708.0;;;9.59;96.62
39295;BME280;52361;52.100;5.248;2023-02-13T00:13:14;103706.0;;;9.58;96.75
39295;BME280;52361;52.100;5.248;2023-02-13T00:16:28;103703.0;;;9.56;96.98
39295;BME280;52361;52.100;5.248;2023-02-13T00:18:05;103708.99999999999;;;9.63;96.55
39295;BME280;52361;52.100;5.248;2023-02-13T00:19:42;103702.0;;;9.66;96.58
39295;BME280;52361;52.100;5.248;2023-02-13T00:22:57;103706.0;;;9.59;96.69
39295;BME280;52361;52.100;5.248;2023-02-13T00:24:33;103701.0;;;9.52;97.07
39295;BME280;52361;52.100;5.248;2023-02-13T00:26:13;103696.0;;;9.56;96.96
39295;BME280;52361;52.100;5.248;2023-02-13T00:27:51;103702.0;;;9.48;97.55
39295;BME280;52361;52.100;5.248;2023-02-13T00:31:07;103699.0;;;9.5;97.11
39295;BME280;52361;52.100;5.248;2023-02-13T00:32:45;103697.0;;;9.52;97.43
39295;BME280;52361;52.100;5.248;2023-02-13T00:34:21;103695.0;;;9.49;97.18
39295;BME280;52361;52.100;5.248;2023-02-13T00:37:41;103692.0;;;9.48;97.43
39295;BME280;52361;52.100;5.248;2023-02-13T00:39:17;103688.00000000001;;;9.43;97.88
39295;BME280;52361;52.100;5.248;2023-02-13T00:40:54;103688.00000000001;;;9.56;97.59
39295;BME280;52361;52.100;5.248;2023-02-13T00:42:30;103692.0;;;9.51;97.3
39295;BME280;52361;52.100;5.248;2023-02-13T00:45:44;103694.0;;;9.48;97.24
39295;BME280;52361;52.100;5.248;2023-02-13T00:47:21;103690.00000000001;;;9.6;96.89
39295;BME280;52361;52.100;5.248;2023-02-13T00:48:57;103695.0;;;9.57;96.59
39295;BME280;52361;52.100;5.248;2023-02-13T00:52:10;103692.0;;;9.33;97.29
39295;BME280;52361;52.100;5.248;2023-02-13T00:53:47;103694.0;;;9.56;96.9
39295;BME280;52361;52.100;5.248;2023-02-13T00:55:25;103684.99999999999;;;9.56;96.24
39295;BME280;52361;52.100;5.248;2023-02-13T00:58:39;103680.0;;;9.63;96.16
39295;BME280;52361;52.100;5.248;2023-02-13T01:00:16;103683.99999999999;;;9.59;96.82
39295;BME280;52361;52.100;5.248;2023-02-13T01:01:52;103686.99999999999;;;9.59;96.83
39295;BME280;52361;52.100;5.248;2023-02-13T01:03:29;103683.99999999999;;;9.44;97.61
39295;BME280;52361;52.100;5.248;2023-02-13T01:06:43;103681.0;;;9.63;96.66
39295;BME280;52361;52.100;5.248;2023-02-13T01:08:20;103681.0;;;9.58;96.37
39295;BME280;52361;52.100;5.248;2023-02-13T01:09:56;103681.0;;;9.61;96.37
39295;BME280;52361;52.100;5.248;2023-02-13T01:13:11;103684.99999999999;;;9.58;96.11
39295;BME280;52361;52.100;5.248;2023-02-13T01:14:48;103684.99999999999;;;9.53;96.23
39295;BME280;52361;52.100;5.248;2023-02-13T01:16:26;103686.99999999999;;;9.53;96.55
39295;BME280;52361;52.100;5.248;2023-02-13T01:18:03;103689.00000000001;;;9.49;96.41
39295;BME280;52361;52.100;5.248;2023-02-13T01:21:18;103684.99999999999;;;9.57;96.26
39295;BME280;52361;52.100;5.248;2023-02-13T01:22:57;103680.0;;;9.63;96.2
39295;BME280;52361;52.100;5.248;2023-02-13T01:24:33;103679.0;;;9.58;95.65
39295;BME280;52361;52.100;5.248;2023-02-13T01:27:54;103682.0;;;9.63;95.74
39295;BME280;52361;52.100;5.248;2023-02-13T01:29:30;103676.0;;;9.64;95.7
39295;BME280;52361;52.100;5.248;2023-02-13T01:31:07;103678.0;;;9.58;95.73
39295;BME280;52361;52.100;5.248;2023-02-13T01:32:45;103670.0;;;9.4;96.26
39295;BME280;52361;52.100;5.248;2023-02-13T01:36:06;103671.0;;;9.4;96.53
39295;BME280;52361;52.100;5.248;2023-02-13T01:37:42;103667.0;;;9.13;97.5
39295;BME280;52361;52.100;5.248;2023-02-13T01:39:19;103671.0;;;9.33;97.61
39295;BME280;52361;52.100;5.248;2023-02-13T01:42:33;103676.0;;;9.42;96.86
39295;BME280;52361;52.100;5.248;2023-02-13T01:45:21;103676.0;;;9.4;96.77
39295;BME280;52361;52.100;5.248;2023-02-13T01:47:07;103673.0;;;9.51;96.48
39295;BME280;52361;52.100;5.248;2023-02-13T01:48:45;103669.0;;;9.23;96.98
39295;BME280;52361;52.100;5.248;2023-02-13T01:50:27;103672.0;;;9.25;98.01
39295;BME280;52361;52.100;5.248;2023-02-13T01:52:08;103666.00000000001;;;9.23;97.8
39295;BME280;52361;52.100;5.248;2023-02-13T01:53:48;103667.0;;;9.31;97.62
39295;BME280;52361;52.100;5.248;2023-02-13T01:57:10;103664.00000000001;;;9.49;96.62
39295;BME280;52361;52.100;5.248;2023-02-13T01:58:52;103661.99999999999;;;9.47;96.85
39295;BME280;52361;52.100;5.248;2023-02-13T02:00:35;103658.0;;;9.25;97.32
39295;BME280;52361;52.100;5.248;2023-02-13T02:02:14;103659.99999999999;;;9.23;97.52
39295;BME280;52361;52.100;5.248;2023-02-13T02:05:33;103663.00000000001;;;9.23;97.4
39295;BME280;52361;52.100;5.248;2023-02-13T02:07:13;103664.00000000001;;;9.3;97.47
39295;BME280;52361;52.100;5.248;2023-02-13T02:09:01;103664.00000000001;;;9.34;97.53
39295;BME280;52361;52.100;5.248;2023-02-13T02:10:40;103659.99999999999;;;9.44;97.12
39295;BME280;52361;52.100;5.248;2023-02-13T02:14:02;103657.0;;;9.31;97.02
39295;BME280;52361;52.100;5.248;2023-02-13T02:15:40;103655.0;;;9.48;96.85
39295;BME280;52361;52.100;5.248;2023-02-13T02:17:18;103657.0;;;9.52;96.69
39295;BME280;52361;52.100;5.248;2023-02-13T02:18:57;103658.0;;;9.59;96.76
39295;BME280;52361;52.100;5.248;2023-02-13T02:23:43;103661.99999999999;;;9.39;97.2
39295;BME280;52361;52.100;5.248;2023-02-13T02:27:08;103666.00000000001;;;9.21;98.24
39295;BME280;52361;52.100;5.248;2023-02-13T02:30:45;103661.99999999999;;;9.43;97.38
39295;BME280;52361;52.100;5.248;2023-02-13T02:34:18;103661.99999999999;;;9.33;97.73
39295;BME280;52361;52.100;5.248;2023-02-13T02:36:15;103656.0;;;9.48;97.46
39295;BME280;52361;52.100;5.248;2023-02-13T02:38:14;103654.0;;;9.38;97.86
39295;BME280;52361;52.100;5.248;2023-02-13T02:40:19;103658.0;;;9.49;97.38
39295;BME280;52361;52.100;5.248;2023-02-13T02:42:08;103657.0;;;9.43;97.41
39295;BME280;52361;52.100;5.248;2023-02-13T02:44:00;103654.0;;;9.53;96.95
39295;BME280;52361;52.100;5.248;2023-02-13T02:50:13;103654.0;;;9.47;97.32
39295;BME280;52361;52.100;5.248;2023-02-13T02:51:58;103651.0;;;9.44;97.96
39295;BME280;52361;52.100;5.248;2023-02-13T02:53:43;103647.0;;;9.48;97.47
39295;BME280;52361;52.100;5.248;2023-02-13T02:55:34;103646.0;;;9.5;97.66
39295;BME280;52361;52.100;5.248;2023-02-13T02:57:14;103645.0;;;9.42;97.96
39295;BME280;52361;52.100;5.248;2023-02-13T03:07:17;103644.0;;;9.43;98.06
39295;BME280;52361;52.100;5.248;2023-02-13T03:13:33;103645.0;;;9.25;98.64
39295;BME280;52361;52.100;5.248;2023-02-13T03:15:16;103642.0;;;9.14;99.51
39295;BME280;52361;52.100;5.248;2023-02-13T03:22:30;103643.0;;;9.25;98.74
39295;BME280;52361;52.100;5.248;2023-02-13T03:24:18;103642.0;;;9.38;98.63
39295;BME280;52361;52.100;5.248;2023-02-13T03:26:12;103648.0;;;9.47;98.49
39295;BME280;52361;52.100;5.248;2023-02-13T03:30:42;103647.0;;;9.48;98.2
39295;BME280;52361;52.100;5.248;2023-02-13T03:32:38;103659.99999999999;;;9.35;98.76
39295;BME280;52361;52.100;5.248;2023-02-13T03:34:23;103652.0;;;9.39;98.72
39295;BME280;52361;52.100;5.248;2023-02-13T03:40:12;103654.0;;;9.31;99.72
39295;BME280;52361;52.100;5.248;2023-02-13T03:41:55;103653.0;;;9.23;99.87
39295;BME280;52361;52.100;5.248;2023-02-13T03:43:38;103646.0;;;9.17;99.92
39295;BME280;52361;52.100;5.248;2023-02-13T03:45:52;103648.0;;;9.25;99.9
39295;BME280;52361;52.100;5.248;2023-02-13T03:47:31;103643.0;;;9.22;99.69
39295;BME280;52361;52.100;5.248;2023-02-13T03:50:13;103642.0;;;9.27;99.48
39295;BME280;52361;52.100;5.248;2023-02-13T03:51:55;103646.0;;;9.39;99.07
39295;BME280;52361;52.100;5.248;2023-02-13T03:53:34;103648.0;;;9.32;98.86
39295;BME280;52361;52.100;5.248;2023-02-13T03:59:28;103646.0;;;9.26;99.95
39295;BME280;52361;52.100;5.248;2023-02-13T04:02:53;103643.0;;;9.32;99.83
39295;BME280;52361;52.100;5.248;2023-02-13T04:04:39;103643.0;;;9.19;100.0
39295;BME280;52361;52.100;5.248;2023-02-13T04:06:20;103643.0;;;9.22;100.0
39295;BME280;52361;52.100;5.248;2023-02-13T04:08:02;103642.0;;;9.27;100.0
39295;BME280;52361;52.100;5.248;2023-02-13T04:09:41;103641.00000000001;;;9.24;100.0
39295;BME280;52361;52.100;5.248;2023-02-13T04:13:10;103641.00000000001;;;9.25;100.0
39295;BME280;52361;52.100;5.248;2023-02-13T04:14:54;103638.00000000001;;;9.1;100.0
39295;BME280;52361;52.100;5.248;2023-02-13T04:16:37;103640.00000000001;;;9.23;100.0
39295;BME280;52361;52.100;5.248;2023-02-13T04:18:17;103633.99999999999;;;9.27;100.0
39295;BME280;52361;52.100;5.248;2023-02-13T04:21:36;103634.99999999999;;;9.26;100.0
39295;BME280;52361;52.100;5.248;2023-02-13T04:23:14;103636.99999999999;;;9.0;100.0
39295;BME280;52361;52.100;5.248;2023-02-13T04:24:52;103639.00000000001;;;9.22;100.0
39295;BME280;52361;52.100;5.248;2023-02-13T04:26:33;103633.99999999999;;;9.07;100.0
39295;BME280;52361;52.100;5.248;2023-02-13T04:29:47;103642.0;;;9.14;100.0
39295;BME280;52361;52.100;5.248;2023-02-13T04:31:23;103643.0;;;9.24;100.0
39295;BME280;52361;52.100;5.248;2023-02-13T04:32:59;103643.0;;;9.18;100.0
39295;BME280;52361;52.100;5.248;2023-02-13T04:36:13;103642.0;;;9.23;100.0
39295;BME280;52361;52.100;5.248;2023-02-13T04:37:49;103642.0;;;9.25;100.0
39295;BME280;52361;52.100;5.248;2023-02-13T04:39:25;103633.99999999999;;;9.26;100.0
39295;BME280;52361;52.100;5.248;2023-02-13T04:41:01;103636.99999999999;;;9.28;100.0
39295;BME280;52361;52.100;5.248;2023-02-13T04:44:13;103633.99999999999;;;9.18;100.0
39295;BME280;52361;52.100;5.248;2023-02-13T04:45:50;103633.99999999999;;;9.31;100.0
39295;BME280;52361;52.100;5.248;2023-02-13T04:47:27;103633.0;;;9.23;100.0
39295;BME280;52361;52.100;5.248;2023-02-13T04:50:39;103630.0;;;9.31;100.0
39295;BME280;52361;52.100;5.248;2023-02-13T04:52:15;103636.99999999999;;;9.24;100.0
39295;BME280;52361;52.100;5.248;2023-02-13T04:53:52;103628.0;;;9.27;100.0
39295;BME280;52361;52.100;5.248;2023-02-13T04:57:05;103631.0;;;9.15;100.0
39295;BME280;52361;52.100;5.248;2023-02-13T04:58:41;103628.0;;;9.14;100.0
39295;BME280;52361;52.100;5.248;2023-02-13T05:00:18;103619.0;;;9.19;100.0
39295;BME280;52361;52.100;5.248;2023-02-13T05:01:55;103619.0;;;9.21;100.0
39295;BME280;52361;52.100;5.248;2023-02-13T05:05:08;103617.0;;;9.23;100.0
39295;BME280;52361;52.100;5.248;2023-02-13T05:06:44;103609.99999999999;;;9.21;100.0
39295;BME280;52361;52.100;5.248;2023-02-13T05:08:20;103609.99999999999;;;9.13;100.0
39295;BME280;52361;52.100;5.248;2023-02-13T05:11:32;103609.99999999999;;;9.23;100.0
39295;BME280;52361;52.100;5.248;2023-02-13T05:13:08;103611.99999999999;;;9.15;100.0
39295;BME280;52361;52.100;5.248;2023-02-13T05:14:45;103619.0;;;9.13;100.0
39295;BME280;52361;52.100;5.248;2023-02-13T05:17:57;103617.0;;;9.06;100.0
39295;BME280;52361;52.100;5.248;2023-02-13T05:19:33;103614.00000000001;;;9.14;100.0
39295;BME280;52361;52.100;5.248;2023-02-13T05:23:31;103606.0;;;9.16;100.0
39295;BME280;52361;52.100;5.248;2023-02-13T05:25:08;103605.0;;;9.17;100.0
39295;BME280;52361;52.100;5.248;2023-02-13T05:29:24;103609.99999999999;;;9.05;100.0
39295;BME280;52361;52.100;5.248;2023-02-13T05:31:01;103608.99999999999;;;9.1;100.0
39295;BME280;52361;52.100;5.248;2023-02-13T05:32:37;103606.0;;;9.3;100.0
39295;BME280;52361;52.100;5.248;2023-02-13T05:34:14;103607.0;;;9.07;100.0
39295;BME280;52361;52.100;5.248;2023-02-13T05:35:50;103608.0;;;9.14;100.0
39295;BME280;52361;52.100;5.248;2023-02-13T05:37:27;103603.0;;;9.21;100.0
39295;BME280;52361;52.100;5.248;2023-02-13T05:40:39;103605.0;;;9.26;100.0
39295;BME280;52361;52.100;5.248;2023-02-13T05:42:15;103602.0;;;9.27;100.0
39295;BME280;52361;52.100;5.248;2023-02-13T05:43:51;103602.0;;;9.23;100.0
39295;BME280;52361;52.100;5.248;2023-02-13T05:47:04;103603.0;;;9.23;100.0
39295;BME280;52361;52.100;5.248;2023-02-13T05:48:40;103608.0;;;9.11;100.0
39295;BME280;52361;52.100;5.248;2023-02-13T05:50:16;103608.99999999999;;;9.22;100.0
39295;BME280;52361;52.100;5.248;2023-02-13T05:53:28;103608.0;;;9.26;100.0
39295;BME280;52361;52.100;5.248;2023-02-13T05:55:05;103602.0;;;9.16;100.0
39295;BME280;52361;52.100;5.248;2023-02-13T05:56:42;103605.0;;;9.22;100.0
39295;BME280;52361;52.100;5.248;2023-02-13T05:58:19;103606.0;;;9.15;100.0
39295;BME280;52361;52.100;5.248;2023-02-13T06:01:33;103606.0;;;9.13;100.0
39295;BME280;52361;52.100;5.248;2023-02-13T06:03:09;103617.0;;;9.18;100.0
39295;BME280;52361;52.100;5.248;2023-02-13T06:04:45;103614.00000000001;;;9.27;100.0
39295;BME280;52361;52.100;5.248;2023-02-13T06:07:58;103614.00000000001;;;9.23;100.0
39295;BME280;52361;52.100;5.248;2023-02-13T06:09:34;103608.99999999999;;;9.16;100.0
39295;BME280;52361;52.100;5.248;2023-02-13T06:11:10;103615.00000000001;;;9.26;100.0
39295;BME280;52361;52.100;5.248;2023-02-13T06:14:22;103613.00000000001;;;9.17;100.0
39295;BME280;52361;52.100;5.248;2023-02-13T06:15:59;103608.99999999999;;;9.16;100.0
39295;BME280;52361;52.100;5.248;2023-02-13T06:17:35;103611.99999999999;;;9.23;100.0
39295;BME280;52361;52.100;5.248;2023-02-13T06:20:47;103608.99999999999;;;9.21;100.0
39295;BME280;52361;52.100;5.248;2023-02-13T06:22:23;103613.00000000001;;;9.18;100.0
39295;BME280;52361;52.100;5.248;2023-02-13T06:25:36;103608.99999999999;;;9.16;100.0
39295;BME280;52361;52.100;5.248;2023-02-13T06:28:49;103613.00000000001;;;9.17;100.0
39295;BME280;52361;52.100;5.248;2023-02-13T06:30:25;103611.99999999999;;;9.27;100.0
39295;BME280;52361;52.100;5.248;2023-02-13T06:32:01;103617.0;;;9.3;100.0
39295;BME280;52361;52.100;5.248;2023-02-13T06:35:15;103619.0;;;9.15;100.0
39295;BME280;52361;52.100;5.248;2023-02-13T06:36:52;103617.0;;;9.19;100.0
39295;BME280;52361;52.100;5.248;2023-02-13T06:38:28;103617.0;;;9.13;100.0
39295;BME280;52361;52.100;5.248;2023-02-13T06:41:42;103613.00000000001;;;9.16;100.0
39295;BME280;52361;52.100;5.248;2023-02-13T06:43:19;103615.00000000001;;;9.23;100.0
39295;BME280;52361;52.100;5.248;2023-02-13T06:44:55;103617.0;;;9.28;100.0
39295;BME280;52361;52.100;5.248;2023-02-13T06:46:31;103608.99999999999;;;9.18;100.0
39295;BME280;52361;52.100;5.248;2023-02-13T06:49:43;103611.99999999999;;;9.23;100.0
39295;BME280;52361;52.100;5.248;2023-02-13T06:51:19;103613.00000000001;;;9.19;100.0
39295;BME280;52361;52.100;5.248;2023-02-13T06:52:56;103614.00000000001;;;9.31;100.0
39295;BME280;52361;52.100;5.248;2023-02-13T06:56:09;103617.0;;;9.26;100.0
39295;BME280;52361;52.100;5.248;2023-02-13T06:57:46;103617.0;;;9.18;100.0
39295;BME280;52361;52.100;5.248;2023-02-13T06:59:22;103615.00000000001;;;9.25;100.0
39295;BME280;52361;52.100;5.248;2023-02-13T07:02:36;103617.0;;;9.23;100.0
39295;BME280;52361;52.100;5.248;2023-02-13T07:04:12;103619.0;;;9.23;100.0
39295;BME280;52361;52.100;5.248;2023-02-13T07:05:51;103625.0;;;9.14;100.0
39295;BME280;52361;52.100;5.248;2023-02-13T07:07:31;103619.0;;;9.18;100.0
39295;BME280;52361;52.100;5.248;2023-02-13T07:10:43;103619.0;;;9.08;100.0
39295;BME280;52361;52.100;5.248;2023-02-13T07:12:20;103615.00000000001;;;9.14;100.0
39295;BME280;52361;52.100;5.248;2023-02-13T07:13:56;103617.0;;;9.23;100.0
39295;BME280;52361;52.100;5.248;2023-02-13T07:17:10;103618.0;;;9.22;100.0
39295;BME280;52361;52.100;5.248;2023-02-13T07:18:46;103620.0;;;9.18;100.0
39295;BME280;52361;52.100;5.248;2023-02-13T07:20:23;103619.0;;;9.09;100.0
39295;BME280;52361;52.100;5.248;2023-02-13T07:22:00;103622.0;;;9.15;100.0
39295;BME280;52361;52.100;5.248;2023-02-13T07:25:12;103615.00000000001;;;9.18;100.0
39295;BME280;52361;52.100;5.248;2023-02-13T07:26:48;103623.0;;;9.14;100.0
39295;BME280;52361;52.100;5.248;2023-02-13T07:28:25;103617.0;;;9.0;100.0
39295;BME280;52361;52.100;5.248;2023-02-13T07:31:39;103618.0;;;9.13;100.0
39295;BME280;52361;52.100;5.248;2023-02-13T07:33:15;103618.0;;;8.9;100.0
39295;BME280;52361;52.100;5.248;2023-02-13T07:34:51;103622.0;;;8.92;100.0
39295;BME280;52361;52.100;5.248;2023-02-13T07:38:03;103623.0;;;8.9;100.0
39295;BME280;52361;52.100;5.248;2023-02-13T07:39:40;103624.0;;;9.0;100.0
39295;BME280;52361;52.100;5.248;2023-02-13T07:41:17;103629.0;;;9.0;100.0
39295;BME280;52361;52.100;5.248;2023-02-13T07:44:29;103631.0;;;8.82;100.0
39295;BME280;52361;52.100;5.248;2023-02-13T07:46:05;103627.0;;;8.96;100.0
39295;BME280;52361;52.100;5.248;2023-02-13T07:47:41;103633.99999999999;;;8.98;100.0
39295;BME280;52361;52.100;5.248;2023-02-13T07:49:17;103634.99999999999;;;8.99;100.0
39295;BME280;52361;52.100;5.248;2023-02-13T07:52:36;103636.99999999999;;;8.97;100.0
39295;BME280;52361;52.100;5.248;2023-02-13T07:54:12;103642.0;;;8.98;100.0
39295;BME280;52361;52.100;5.248;2023-02-13T07:55:49;103638.00000000001;;;9.01;100.0
39295;BME280;52361;52.100;5.248;2023-02-13T07:59:01;103641.00000000001;;;8.93;100.0
39295;BME280;52361;52.100;5.248;2023-02-13T08:00:38;103644.0;;;8.97;100.0
39295;BME280;52361;52.100;5.248;2023-02-13T08:02:14;103651.0;;;9.0;100.0
39295;BME280;52361;52.100;5.248;2023-02-13T08:03:51;103653.0;;;9.03;100.0
39295;BME280;52361;52.100;5.248;2023-02-13T08:07:05;103657.0;;;9.03;100.0
39295;BME280;52361;52.100;5.248;2023-02-13T08:08:41;103663.00000000001;;;9.17;100.0
39295;BME280;52361;52.100;5.248;2023-02-13T08:12:07;103664.00000000001;;;9.18;100.0
39295;BME280;52361;52.100;5.248;2023-02-13T08:13:52;103663.00000000001;;;9.19;100.0
39295;BME280;52361;52.100;5.248;2023-02-13T08:15:28;103669.0;;;9.15;100.0
39295;BME280;52361;52.100;5.248;2023-02-13T08:17:04;103673.0;;;9.31;100.0
39295;BME280;52361;52.100;5.248;2023-02-13T08:18:40;103669.0;;;9.33;100.0
39295;BME280;52361;52.100;5.248;2023-02-13T08:21:53;103668.0;;;9.4;100.0
39295;BME280;52361;52.100;5.248;2023-02-13T08:23:30;103667.0;;;9.49;100.0
39295;BME280;52361;52.100;5.248;2023-02-13T08:25:06;103665.00000000001;;;9.55;100.0
39295;BME280;52361;52.100;5.248;2023-02-13T08:28:19;103664.00000000001;;;9.53;100.0
39295;BME280;52361;52.100;5.248;2023-02-13T08:29:55;103667.0;;;9.58;100.0
39295;BME280;52361;52.100;5.248;2023-02-13T08:31:33;103672.0;;;9.63;100.0
39295;BME280;52361;52.100;5.248;2023-02-13T08:33:09;103670.0;;;9.63;100.0
39295;BME280;52361;52.100;5.248;2023-02-13T08:36:21;103664.00000000001;;;9.59;100.0
39295;BME280;52361;52.100;5.248;2023-02-13T08:38:01;103665.00000000001;;;9.71;100.0
39295;BME280;52361;52.100;5.248;2023-02-13T08:39:37;103664.00000000001;;;9.94;100.0
39295;BME280;52361;52.100;5.248;2023-02-13T08:42:51;103666.00000000001;;;10.05;100.0
39295;BME280;52361;52.100;5.248;2023-02-13T08:44:27;103663.00000000001;;;10.07;100.0
39295;BME280;52361;52.100;5.248;2023-02-13T08:46:03;103658.0;;;10.14;100.0
39295;BME280;52361;52.100;5.248;2023-02-13T08:49:16;103664.00000000001;;;10.25;100.0
39295;BME280;52361;52.100;5.248;2023-02-13T08:50:53;103661.99999999999;;;10.27;100.0
39295;BME280;52361;52.100;5.248;2023-02-13T08:52:29;103656.0;;;10.35;100.0
39295;BME280;52361;52.100;5.248;2023-02-13T08:54:05;103658.99999999999;;;10.48;100.0
39295;BME280;52361;52.100;5.248;2023-02-13T08:57:17;103663.00000000001;;;10.73;100.0
39295;BME280;52361;52.100;5.248;2023-02-13T08:58:54;103664.00000000001;;;10.95;100.0
39295;BME280;52361;52.100;5.248;2023-02-13T09:00:30;103667.0;;;10.98;100.0
39295;BME280;52361;52.100;5.248;2023-02-13T09:03:49;103669.0;;;11.18;99.42
39295;BME280;52361;52.100;5.248;2023-02-13T09:05:25;103667.0;;;11.37;99.16
39295;BME280;52361;52.100;5.248;2023-02-13T09:07:02;103669.0;;;11.44;98.69
39295;BME280;52361;52.100;5.248;2023-02-13T09:10:16;103667.0;;;11.4;97.57
39295;BME280;52361;52.100;5.248;2023-02-13T09:11:55;103664.00000000001;;;11.31;97.59
39295;BME280;52361;52.100;5.248;2023-02-13T09:13:33;103659.99999999999;;;11.29;98.6
39295;BME280;52361;52.100;5.248;2023-02-13T09:15:11;103666.00000000001;;;11.51;97.51
39295;BME280;52361;52.100;5.248;2023-02-13T09:18:23;103667.0;;;11.47;97.6
39295;BME280;52361;52.100;5.248;2023-02-13T09:19:59;103667.0;;;11.35;97.94
39295;BME280;52361;52.100;5.248;2023-02-13T09:21:35;103669.0;;;11.37;98.27
39295;BME280;52361;52.100;5.248;2023-02-13T09:24:48;103668.0;;;11.24;98.11
39295;BME280;52361;52.100;5.248;2023-02-13T09:26:24;103666.00000000001;;;11.16;98.31
39295;BME280;52361;52.100;5.248;2023-02-13T09:28:00;103663.00000000001;;;11.36;98.83
39295;BME280;52361;52.100;5.248;2023-02-13T09:29:36;103664.00000000001;;;11.41;98.51
39295;BME280;52361;52.100;5.248;2023-02-13T09:32:53;103665.00000000001;;;11.62;97.23
39295;BME280;52361;52.100;5.248;2023-02-13T09:34:30;103666.00000000001;;;11.86;96.12
39295;BME280;52361;52.100;5.248;2023-02-13T09:36:08;103657.0;;;11.88;95.42
39295;BME280;52361;52.100;5.248;2023-02-13T09:39:22;103661.99999999999;;;12.02;95.28
39295;BME280;52361;52.100;5.248;2023-02-13T09:41:00;103659.99999999999;;;11.83;95.04
39295;BME280;52361;52.100;5.248;2023-02-13T09:42:38;103667.0;;;12.09;94.43
39295;BME280;52361;52.100;5.248;2023-02-13T09:44:34;103666.00000000001;;;12.6;92.12
39295;BME280;52361;52.100;5.248;2023-02-13T09:47:55;103665.00000000001;;;12.78;91.16
39295;BME280;52361;52.100;5.248;2023-02-13T09:49:34;103666.00000000001;;;12.84;90.76
39295;BME280;52361;52.100;5.248;2023-02-13T09:51:15;103666.00000000001;;;12.77;89.44
39295;BME280;52361;52.100;5.248;2023-02-13T09:52:54;103661.99999999999;;;12.53;90.22
39295;BME280;52361;52.100;5.248;2023-02-13T09:56:13;103661.99999999999;;;13.0;89.68
39295;BME280;52361;52.100;5.248;2023-02-13T09:57:55;103666.00000000001;;;13.02;87.01
39295;BME280;52361;52.100;5.248;2023-02-13T09:59:44;103665.00000000001;;;13.03;87.33
39295;BME280;52361;52.100;5.248;2023-02-13T10:01:28;103665.00000000001;;;12.96;87.83
39295;BME280;52361;52.100;5.248;2023-02-13T10:03:27;103659.99999999999;;;13.24;88.19
39295;BME280;52361;52.100;5.248;2023-02-13T10:07:07;103659.99999999999;;;13.51;86.51
39295;BME280;52361;52.100;5.248;2023-02-13T10:08:59;103663.00000000001;;;13.75;84.58
39295;BME280;52361;52.100;5.248;2023-02-13T10:10:49;103658.0;;;14.13;83.84
39295;BME280;52361;52.100;5.248;2023-02-13T10:12:36;103658.99999999999;;;14.3;81.83
39295;BME280;52361;52.100;5.248;2023-02-13T10:14:25;103661.99999999999;;;14.67;80.41
39295;BME280;52361;52.100;5.248;2023-02-13T10:16:09;103661.99999999999;;;14.71;78.95
39295;BME280;52361;52.100;5.248;2023-02-13T10:17:53;103664.00000000001;;;14.88;78.12
39295;BME280;52361;52.100;5.248;2023-02-13T10:21:19;103666.00000000001;;;14.95;78.2
39295;BME280;52361;52.100;5.248;2023-02-13T10:23:02;103665.00000000001;;;14.68;77.83
39295;BME280;52361;52.100;5.248;2023-02-13T10:24:48;103658.99999999999;;;14.51;77.62
39295;BME280;52361;52.100;5.248;2023-02-13T10:26:43;103658.99999999999;;;14.12;79.33
39295;BME280;52361;52.100;5.248;2023-02-13T10:28:28;103658.0;;;14.56;79.44
39295;BME280;52361;52.100;5.248;2023-02-13T10:31:58;103653.0;;;14.76;79.53
39295;BME280;52361;52.100;5.248;2023-02-13T10:33:41;103647.0;;;15.08;77.87
39295;BME280;52361;52.100;5.248;2023-02-13T10:35:26;103651.0;;;15.22;76.94
39295;BME280;52361;52.100;5.248;2023-02-13T10:37:11;103649.0;;;15.12;76.84
39295;BME280;52361;52.100;5.248;2023-02-13T10:38:55;103647.0;;;15.06;75.66
39295;BME280;52361;52.100;5.248;2023-02-13T10:42:28;103650.0;;;14.83;76.02
39295;BME280;52361;52.100;5.248;2023-02-13T10:44:24;103647.0;;;15.08;75.73
39295;BME280;52361;52.100;5.248;2023-02-13T10:46:13;103646.0;;;14.8;77.37
39295;BME280;52361;52.100;5.248;2023-02-13T10:48:04;103643.0;;;14.63;78.16
39295;BME280;52361;52.100;5.248;2023-02-13T10:49:58;103639.00000000001;;;14.57;78.41
39295;BME280;52361;52.100;5.248;2023-02-13T10:53:33;103640.00000000001;;;14.6;79.44
39295;BME280;52361;52.100;5.248;2023-02-13T10:57:15;103639.00000000001;;;14.95;78.33
39295;BME280;52361;52.100;5.248;2023-02-13T10:59:05;103643.0;;;15.14;76.97
39295;BME280;52361;52.100;5.248;2023-02-13T11:00:56;103636.99999999999;;;15.23;76.23
39295;BME280;52361;52.100;5.248;2023-02-13T11:02:36;103641.00000000001;;;15.2;76.75
39295;BME280;52361;52.100;5.248;2023-02-13T11:04:14;103640.00000000001;;;15.12;76.95
39295;BME280;52361;52.100;5.248;2023-02-13T11:05:53;103642.0;;;14.96;77.95
39295;BME280;52361;52.100;5.248;2023-02-13T11:09:12;103642.0;;;14.97;75.58
39295;BME280;52361;52.100;5.248;2023-02-13T11:10:48;103633.0;;;15.16;77.06
39295;BME280;52361;52.100;5.248;2023-02-13T11:12:27;103630.0;;;15.11;76.38
39295;BME280;52361;52.100;5.248;2023-02-13T11:15:57;103631.0;;;14.62;76.58
39295;BME280;52361;52.100;5.248;2023-02-13T11:17:39;103632.0;;;14.9;77.25